createdAt,value
2018-12-31T00:01:23.226Z,957.37
2018-12-31T00:03:49.514Z,957.35
2018-12-31T00:06:15.822Z,957.38
2018-12-31T00:08:42.143Z,957.34
2018-12-31T00:11:08.434Z,957.37
2018-12-31T00:13:34.734Z,957.41
2018-12-31T00:16:01.037Z,957.43
2018-12-31T00:18:27.310Z,957.45
2018-12-31T00:20:53.621Z,957.45
2018-12-31T00:23:19.935Z,957.40
2018-12-31T00:25:46.264Z,957.45
2018-12-31T00:28:12.560Z,957.46
2018-12-31T00:30:38.857Z,957.39
2018-12-31T00:33:05.156Z,957.44
2018-12-31T00:35:31.446Z,957.44
2018-12-31T00:37:57.745Z,957.41
2018-12-31T00:40:24.044Z,957.40
2018-12-31T00:42:50.356Z,957.41
2018-12-31T00:45:16.652Z,957.39
2018-12-31T00:47:42.946Z,957.39
2018-12-31T00:50:09.244Z,957.36
2018-12-31T00:52:35.632Z,957.33
2018-12-31T00:55:01.872Z,957.33
2018-12-31T00:57:28.155Z,957.33
2018-12-31T00:59:54.505Z,957.31
2018-12-31T01:02:20.804Z,957.31
2018-12-31T01:04:47.066Z,957.24
2018-12-31T01:07:13.370Z,957.22
2018-12-31T01:09:39.649Z,957.18
2018-12-31T01:12:05.958Z,957.16
2018-12-31T01:14:32.278Z,957.16
2018-12-31T01:16:58.565Z,957.09
2018-12-31T01:19:24.850Z,957.13
2018-12-31T01:21:51.126Z,957.10
2018-12-31T01:24:17.419Z,957.07
2018-12-31T01:26:43.713Z,957.07
2018-12-31T01:29:10.002Z,956.99
2018-12-31T01:31:36.343Z,957.03
2018-12-31T01:34:02.646Z,956.98
2018-12-31T01:36:28.938Z,956.95
2018-12-31T01:38:55.248Z,957.00
2018-12-31T01:41:21.526Z,956.91
2018-12-31T01:43:47.840Z,956.86
2018-12-31T01:46:14.112Z,956.89
2018-12-31T01:48:40.437Z,956.89
2018-12-31T01:51:11.288Z,956.83
2018-12-31T01:53:33.033Z,956.75
2018-12-31T01:55:59.312Z,956.77
2018-12-31T01:58:25.612Z,956.73
2018-12-31T02:00:51.933Z,956.70
2018-12-31T02:03:18.243Z,956.73
2018-12-31T02:05:44.531Z,956.69
2018-12-31T02:08:10.832Z,956.72
2018-12-31T02:10:37.130Z,956.63
2018-12-31T02:13:03.412Z,956.63
2018-12-31T02:15:29.696Z,956.62
2018-12-31T02:17:56.050Z,956.59
2018-12-31T02:20:22.339Z,956.56
2018-12-31T02:22:48.623Z,956.56
2018-12-31T02:25:14.933Z,956.52
2018-12-31T02:27:41.212Z,956.56
2018-12-31T02:30:07.536Z,956.58
2018-12-31T02:32:33.846Z,956.55
2018-12-31T02:35:00.151Z,956.45
2018-12-31T02:37:26.419Z,956.49
2018-12-31T02:39:52.703Z,956.44
2018-12-31T02:42:18.995Z,956.47
2018-12-31T02:44:45.271Z,956.46
2018-12-31T02:47:11.589Z,956.50
2018-12-31T02:49:37.886Z,956.49
2018-12-31T02:52:04.174Z,956.43
2018-12-31T02:54:30.454Z,956.45
2018-12-31T02:56:56.721Z,956.39
2018-12-31T02:59:23.024Z,956.39
2018-12-31T03:01:49.313Z,956.32
2018-12-31T03:04:15.612Z,956.35
2018-12-31T03:06:41.935Z,956.37
2018-12-31T03:09:08.213Z,956.32
2018-12-31T03:11:34.524Z,956.34
2018-12-31T03:14:00.828Z,956.32
2018-12-31T03:16:27.127Z,956.31
2018-12-31T03:18:53.420Z,956.31
2018-12-31T03:21:19.733Z,956.29
2018-12-31T03:23:46.006Z,956.33
2018-12-31T03:26:12.329Z,956.33
2018-12-31T03:28:38.600Z,956.31
2018-12-31T03:31:04.944Z,956.33
2018-12-31T03:33:31.276Z,956.33
2018-12-31T03:35:57.586Z,956.36
2018-12-31T03:38:23.866Z,956.34
2018-12-31T03:40:50.169Z,956.40
2018-12-31T03:43:16.509Z,956.42
2018-12-31T03:45:42.794Z,956.46
2018-12-31T03:48:09.079Z,956.43
2018-12-31T03:50:35.352Z,956.43
2018-12-31T03:53:01.648Z,956.51
2018-12-31T03:55:27.945Z,956.53
2018-12-31T03:57:54.229Z,956.51
2018-12-31T04:00:20.582Z,956.48
2018-12-31T04:02:47.049Z,956.50
2018-12-31T04:05:13.167Z,956.49
2018-12-31T04:07:39.519Z,956.49
2018-12-31T04:10:05.770Z,956.51
2018-12-31T04:12:32.091Z,956.50
2018-12-31T04:14:58.365Z,956.54
2018-12-31T04:17:24.701Z,956.52
2018-12-31T04:19:50.978Z,956.52
2018-12-31T04:22:17.280Z,956.53
2018-12-31T04:24:43.549Z,956.49
2018-12-31T04:27:09.844Z,956.56
2018-12-31T04:29:36.140Z,956.59
2018-12-31T04:32:02.433Z,956.66
2018-12-31T04:34:28.715Z,956.64
2018-12-31T04:36:55.039Z,956.67
2018-12-31T04:39:21.327Z,956.72
2018-12-31T04:41:47.612Z,956.72
2018-12-31T04:44:13.926Z,956.80
2018-12-31T04:46:40.203Z,956.83
2018-12-31T04:49:06.556Z,956.80
2018-12-31T04:51:32.843Z,956.83
2018-12-31T04:53:59.140Z,956.82
2018-12-31T04:56:25.418Z,956.86
2018-12-31T04:58:51.716Z,956.88
2018-12-31T05:01:18.027Z,956.97
2018-12-31T05:03:44.308Z,956.93
2018-12-31T05:06:10.598Z,956.96
2018-12-31T05:08:36.897Z,956.97
2018-12-31T05:11:03.167Z,956.91
2018-12-31T05:13:29.547Z,956.95
2018-12-31T05:15:55.846Z,956.98
2018-12-31T05:18:22.218Z,957.03
2018-12-31T05:20:48.544Z,957.00
2018-12-31T05:23:14.843Z,956.96
2018-12-31T05:25:41.182Z,957.04
2018-12-31T05:28:07.503Z,956.99
2018-12-31T05:30:33.874Z,956.95
2018-12-31T05:33:00.198Z,956.96
2018-12-31T05:35:26.601Z,956.99
2018-12-31T05:37:52.915Z,956.96
2018-12-31T05:40:19.221Z,957.00
2018-12-31T05:42:45.500Z,956.97
2018-12-31T05:45:11.822Z,957.03
2018-12-31T05:47:38.128Z,957.03
2018-12-31T05:50:04.427Z,957.00
2018-12-31T05:52:30.743Z,957.03
2018-12-31T05:54:57.093Z,957.01
2018-12-31T05:57:23.342Z,957.09
2018-12-31T05:59:49.662Z,957.14
2018-12-31T06:02:16.053Z,957.04
2018-12-31T06:04:42.373Z,957.18
2018-12-31T06:07:08.687Z,957.12
2018-12-31T06:09:35.025Z,957.10
2018-12-31T06:12:01.502Z,957.19
2018-12-31T06:14:27.772Z,957.22
2018-12-31T06:16:54.093Z,957.23
2018-12-31T06:19:20.424Z,957.22
2018-12-31T06:21:46.742Z,957.22
2018-12-31T06:24:13.012Z,957.24
2018-12-31T06:26:39.593Z,957.26
2018-12-31T06:29:06.099Z,957.27
2018-12-31T06:31:32.373Z,957.30
2018-12-31T06:33:58.805Z,957.29
2018-12-31T06:36:25.131Z,957.28
2018-12-31T06:38:51.428Z,957.28
2018-12-31T06:41:17.709Z,957.35
2018-12-31T06:43:44.058Z,957.35
2018-12-31T06:46:10.377Z,957.28
2018-12-31T06:48:36.679Z,957.35
2018-12-31T06:51:02.971Z,957.36
2018-12-31T06:53:29.262Z,957.33
2018-12-31T06:55:55.584Z,957.31
2018-12-31T06:58:21.876Z,957.36
2018-12-31T07:00:48.176Z,957.38
2018-12-31T07:03:14.490Z,957.37
2018-12-31T07:05:40.831Z,957.36
2018-12-31T07:08:07.163Z,957.40
2018-12-31T07:10:33.466Z,957.36
2018-12-31T07:12:59.769Z,957.37
2018-12-31T07:15:26.054Z,957.37
2018-12-31T07:17:52.398Z,957.41
2018-12-31T07:20:18.679Z,957.41
2018-12-31T07:22:44.992Z,957.41
2018-12-31T07:25:11.303Z,957.39
2018-12-31T07:27:37.630Z,957.41
2018-12-31T07:30:05.931Z,957.41
2018-12-31T07:32:32.218Z,957.39
2018-12-31T07:34:58.534Z,957.42
2018-12-31T07:37:24.864Z,957.35
2018-12-31T07:39:51.161Z,957.39
2018-12-31T07:42:17.483Z,957.37
2018-12-31T07:44:43.736Z,957.32
2018-12-31T07:47:10.063Z,957.43
2018-12-31T07:49:36.383Z,957.43
2018-12-31T07:52:02.707Z,957.45
2018-12-31T07:54:29.004Z,957.45
2018-12-31T07:56:55.618Z,957.43
2018-12-31T07:59:21.949Z,957.47
2018-12-31T08:01:48.313Z,957.51
2018-12-31T08:04:16.074Z,957.54
2018-12-31T08:06:41.177Z,957.56
2018-12-31T08:09:07.567Z,957.57
2018-12-31T08:11:33.969Z,957.58
2018-12-31T08:14:00.274Z,957.57
2018-12-31T08:16:26.563Z,957.55
2018-12-31T08:18:52.950Z,957.58
2018-12-31T08:21:19.258Z,957.59
2018-12-31T08:23:45.574Z,957.63
2018-12-31T08:26:11.909Z,957.63
2018-12-31T08:28:38.283Z,957.58
2018-12-31T08:31:04.556Z,957.63
2018-12-31T08:33:30.840Z,957.64
2018-12-31T08:35:57.186Z,957.65
2018-12-31T08:38:23.495Z,957.67
2018-12-31T08:40:49.783Z,957.66
2018-12-31T08:43:16.112Z,957.68
2018-12-31T08:45:42.399Z,957.69
2018-12-31T08:48:08.742Z,957.65
2018-12-31T08:50:35.122Z,957.63
2018-12-31T08:53:01.424Z,957.61
2018-12-31T08:55:27.729Z,957.50
2018-12-31T08:57:54.055Z,957.60
2018-12-31T09:00:20.357Z,957.58
2018-12-31T09:02:46.629Z,957.56
2018-12-31T09:05:12.928Z,957.54
2018-12-31T09:07:39.219Z,957.50
2018-12-31T09:10:05.515Z,957.48
2018-12-31T09:12:31.833Z,957.48
2018-12-31T09:14:58.167Z,957.43
2018-12-31T09:17:24.466Z,957.47
2018-12-31T09:19:50.777Z,957.45
2018-12-31T09:22:17.073Z,957.49
2018-12-31T09:24:44.757Z,957.45
2018-12-31T09:27:09.711Z,957.45
2018-12-31T09:29:36.040Z,957.42
2018-12-31T09:32:02.320Z,957.39
2018-12-31T09:34:28.623Z,957.40
2018-12-31T09:36:54.918Z,957.46
2018-12-31T09:39:21.602Z,957.42
2018-12-31T09:41:47.959Z,957.33
2018-12-31T09:44:14.316Z,957.26
2018-12-31T09:46:40.721Z,957.27
2018-12-31T09:49:06.998Z,957.26
2018-12-31T09:51:33.308Z,957.25
2018-12-31T09:53:59.614Z,957.22
2018-12-31T09:56:26.117Z,957.20
2018-12-31T09:59:03.511Z,957.20
2018-12-31T10:01:29.867Z,957.14
2018-12-31T10:03:56.369Z,957.05
2018-12-31T10:06:22.748Z,957.09
2018-12-31T10:08:49.447Z,957.08
2018-12-31T10:11:15.404Z,957.05
2018-12-31T10:13:41.723Z,956.97
2018-12-31T10:16:08.073Z,956.93
2018-12-31T10:18:34.345Z,956.95
2018-12-31T10:21:00.613Z,956.93
2018-12-31T10:23:26.917Z,956.90
2018-12-31T10:25:53.204Z,956.92
2018-12-31T10:28:19.610Z,956.91
2018-12-31T10:30:45.911Z,956.92
2018-12-31T10:33:12.237Z,956.90
2018-12-31T10:35:42.910Z,956.85
2018-12-31T10:38:09.428Z,956.88
2018-12-31T10:40:36.772Z,956.84
2018-12-31T10:43:03.258Z,956.85
2018-12-31T10:45:29.562Z,956.88
2018-12-31T10:47:57.587Z,956.84
2018-12-31T10:50:24.666Z,956.82
2018-12-31T10:52:52.916Z,956.84
2018-12-31T10:55:19.385Z,956.73
2018-12-31T10:57:46.061Z,956.84
2018-12-31T11:00:12.588Z,956.79
2018-12-31T11:02:41.698Z,956.67
2018-12-31T11:05:08.068Z,956.68
2018-12-31T11:07:34.579Z,956.65
2018-12-31T11:10:00.944Z,956.69
2018-12-31T11:12:28.046Z,956.66
2018-12-31T11:14:54.290Z,956.62
2018-12-31T11:17:20.589Z,956.48
2018-12-31T11:19:47.445Z,956.57
2018-12-31T11:22:13.939Z,956.50
2018-12-31T11:24:40.951Z,956.57
2018-12-31T11:27:07.306Z,956.53
2018-12-31T11:29:33.594Z,956.51
2018-12-31T11:31:59.960Z,956.48
2018-12-31T11:34:26.358Z,956.58
2018-12-31T11:36:55.275Z,956.55
2018-12-31T11:39:21.880Z,956.53
2018-12-31T11:41:48.757Z,956.59
2018-12-31T11:44:22.165Z,956.56
2018-12-31T11:46:48.415Z,956.50
2018-12-31T11:49:14.708Z,956.50
2018-12-31T11:51:41.007Z,956.47
2018-12-31T11:54:07.307Z,956.51
2018-12-31T11:56:33.618Z,956.52
2018-12-31T11:58:59.916Z,956.53
2018-12-31T12:01:26.314Z,956.53
2018-12-31T12:03:52.572Z,956.50
2018-12-31T12:06:18.899Z,956.50
2018-12-31T12:08:45.193Z,956.53
2018-12-31T12:11:11.491Z,956.51
2018-12-31T12:13:37.774Z,956.60
2018-12-31T12:16:21.520Z,956.60
2018-12-31T12:18:47.868Z,956.65
2018-12-31T12:21:14.351Z,956.62
2018-12-31T12:23:40.820Z,956.64
2018-12-31T12:26:07.207Z,956.52
2018-12-31T12:28:33.619Z,956.61
2018-12-31T12:30:59.901Z,956.64
2018-12-31T12:33:26.206Z,956.64
2018-12-31T12:35:52.561Z,956.70
2018-12-31T12:38:18.821Z,956.66
2018-12-31T12:40:45.149Z,956.61
2018-12-31T12:43:11.454Z,956.70
2018-12-31T12:45:37.791Z,956.65
2018-12-31T12:48:04.109Z,956.62
2018-12-31T12:50:30.453Z,956.74
2018-12-31T12:52:56.922Z,956.73
2018-12-31T12:55:23.860Z,956.71
2018-12-31T12:57:50.212Z,956.75
2018-12-31T13:00:16.542Z,956.80
2018-12-31T13:02:42.829Z,956.75
2018-12-31T13:05:09.112Z,956.74
2018-12-31T13:07:37.773Z,956.78
2018-12-31T13:10:04.067Z,956.76
2018-12-31T13:12:30.465Z,956.76
2018-12-31T13:14:56.886Z,956.84
2018-12-31T13:17:23.496Z,956.84
2018-12-31T13:19:49.892Z,956.83
2018-12-31T13:22:16.175Z,956.79
2018-12-31T13:24:42.509Z,956.80
2018-12-31T13:27:08.797Z,956.87
2018-12-31T13:29:35.134Z,956.82
2018-12-31T13:32:01.411Z,956.81
2018-12-31T13:34:27.850Z,956.81
2018-12-31T13:36:54.143Z,956.86
2018-12-31T13:39:20.453Z,956.87
2018-12-31T13:41:46.740Z,956.86
2018-12-31T13:44:13.037Z,956.91
2018-12-31T13:46:39.333Z,956.91
2018-12-31T13:49:05.851Z,956.92
2018-12-31T13:51:32.128Z,956.95
2018-12-31T13:53:58.451Z,956.97
2018-12-31T13:56:24.734Z,956.98
2018-12-31T13:58:51.034Z,956.97
2018-12-31T14:01:17.338Z,956.98
2018-12-31T14:03:43.641Z,957.00
2018-12-31T14:06:09.972Z,956.98
2018-12-31T14:08:36.286Z,957.02
2018-12-31T14:11:02.568Z,957.01
2018-12-31T14:13:28.888Z,957.03
2018-12-31T14:15:55.194Z,956.97
2018-12-31T14:18:21.587Z,957.00
2018-12-31T14:20:47.953Z,956.99
2018-12-31T14:23:14.296Z,957.03
2018-12-31T14:25:40.598Z,957.02
2018-12-31T14:28:06.871Z,956.99
2018-12-31T14:30:33.363Z,957.00
2018-12-31T14:32:59.681Z,957.00
2018-12-31T14:35:26.149Z,957.02
2018-12-31T14:37:52.506Z,957.02
2018-12-31T14:40:18.795Z,957.04
2018-12-31T14:42:45.093Z,957.04
2018-12-31T14:45:11.396Z,957.07
2018-12-31T14:47:37.711Z,957.13
2018-12-31T14:50:03.997Z,957.14
2018-12-31T14:52:30.281Z,957.11
2018-12-31T14:54:56.587Z,957.11
2018-12-31T14:57:22.880Z,957.15
2018-12-31T14:59:49.207Z,957.14
2018-12-31T15:02:15.522Z,957.21
2018-12-31T15:04:41.795Z,957.25
2018-12-31T15:07:08.073Z,957.21
2018-12-31T15:09:34.363Z,957.29
2018-12-31T15:12:00.946Z,957.23
2018-12-31T15:14:27.263Z,957.35
2018-12-31T15:16:53.543Z,957.30
2018-12-31T15:19:19.820Z,957.27
2018-12-31T15:21:46.107Z,957.27
2018-12-31T15:24:12.409Z,957.27
2018-12-31T15:26:38.697Z,957.36
2018-12-31T15:29:05.042Z,957.37
2018-12-31T15:31:31.328Z,957.39
2018-12-31T15:33:57.682Z,957.41
2018-12-31T15:36:23.940Z,957.45
2018-12-31T15:38:50.267Z,957.44
2018-12-31T15:41:16.586Z,957.46
2018-12-31T15:43:42.884Z,957.49
2018-12-31T15:46:09.196Z,957.42
2018-12-31T15:48:35.606Z,957.55
2018-12-31T15:51:01.889Z,957.53
2018-12-31T15:53:28.186Z,957.58
2018-12-31T15:55:54.500Z,957.64
2018-12-31T15:58:20.784Z,957.62
2018-12-31T16:00:47.076Z,957.74
2018-12-31T16:03:13.340Z,957.74
2018-12-31T16:05:39.682Z,957.76
2018-12-31T16:08:06.013Z,957.76
2018-12-31T16:10:32.359Z,957.73
2018-12-31T16:12:58.669Z,957.80
2018-12-31T16:15:25.083Z,957.77
2018-12-31T16:17:51.812Z,957.87
2018-12-31T16:20:18.182Z,957.87
2018-12-31T16:22:44.813Z,957.87
2018-12-31T16:25:11.383Z,957.91
2018-12-31T16:27:37.897Z,957.97
2018-12-31T16:30:09.495Z,958.06
2018-12-31T16:32:36.319Z,958.02
2018-12-31T16:35:02.855Z,958.06
2018-12-31T16:37:29.259Z,958.04
2018-12-31T16:40:03.951Z,958.15
2018-12-31T16:42:29.635Z,958.10
2018-12-31T16:44:56.509Z,958.16
2018-12-31T16:50:03.061Z,958.19
2018-12-31T16:52:29.351Z,958.22
2018-12-31T16:54:55.634Z,958.24
2018-12-31T16:57:21.949Z,958.27
2018-12-31T16:59:48.246Z,958.30
2018-12-31T17:02:14.543Z,958.34
2018-12-31T17:04:40.826Z,958.32
2018-12-31T17:07:07.121Z,958.36
2018-12-31T17:09:33.398Z,958.36
2018-12-31T17:11:59.722Z,958.34
2018-12-31T17:14:25.994Z,958.42
2018-12-31T17:16:52.278Z,958.39
2018-12-31T17:19:18.568Z,958.40
2018-12-31T17:21:44.839Z,958.43
2018-12-31T17:24:11.129Z,958.54
2018-12-31T17:26:37.440Z,958.62
2018-12-31T17:29:03.800Z,958.61
2018-12-31T17:31:30.120Z,958.60
2018-12-31T17:33:56.408Z,958.67
2018-12-31T17:36:22.697Z,958.70
2018-12-31T17:38:49.104Z,958.71
2018-12-31T17:41:15.283Z,958.72
2018-12-31T17:43:41.562Z,958.73
2018-12-31T17:46:07.856Z,958.77
2018-12-31T17:48:34.169Z,958.78
2018-12-31T17:51:00.475Z,958.77
2018-12-31T17:53:26.751Z,958.78
2018-12-31T17:55:53.048Z,958.78
2018-12-31T17:58:19.342Z,958.77
2018-12-31T18:00:45.669Z,958.86
2018-12-31T18:03:11.954Z,958.85
2018-12-31T18:05:38.265Z,958.77
2018-12-31T18:08:04.567Z,958.78
2018-12-31T18:10:30.867Z,958.80
2018-12-31T18:12:57.151Z,958.82
2018-12-31T18:15:23.463Z,958.80
2018-12-31T18:17:49.780Z,958.78
2018-12-31T18:20:16.069Z,958.83
2018-12-31T18:22:42.363Z,958.79
2018-12-31T18:25:08.826Z,958.80
2018-12-31T18:27:35.111Z,958.82
2018-12-31T18:30:01.439Z,958.84
2018-12-31T18:32:27.719Z,958.85
2018-12-31T18:34:54.013Z,958.85
2018-12-31T18:37:20.334Z,958.89
2018-12-31T18:39:49.490Z,958.88
2018-12-31T18:42:12.932Z,958.86
2018-12-31T18:44:39.260Z,958.84
2018-12-31T18:47:05.551Z,958.84
2018-12-31T18:49:31.849Z,958.87
2018-12-31T18:51:58.137Z,958.90
2018-12-31T18:54:24.423Z,958.90
2018-12-31T18:56:50.719Z,958.96
2018-12-31T18:59:17.043Z,958.94
2018-12-31T19:01:43.358Z,958.80
2018-12-31T19:04:09.619Z,958.85
2018-12-31T19:06:35.937Z,958.82
2018-12-31T19:09:02.178Z,958.83
2018-12-31T19:11:28.519Z,958.77
2018-12-31T19:13:54.816Z,958.86
2018-12-31T19:16:21.095Z,958.87
2018-12-31T19:18:47.390Z,958.91
2018-12-31T19:21:13.672Z,958.89
2018-12-31T19:23:39.947Z,958.96
2018-12-31T19:26:06.224Z,959.00
2018-12-31T19:28:32.530Z,958.94
2018-12-31T19:30:58.810Z,958.94
2018-12-31T19:33:25.106Z,959.01
2018-12-31T19:35:51.411Z,958.96
2018-12-31T19:38:17.683Z,958.99
2018-12-31T19:40:43.983Z,959.02
2018-12-31T19:43:10.260Z,959.04
2018-12-31T19:45:36.551Z,959.14
2018-12-31T19:48:02.885Z,959.18
2018-12-31T19:50:29.163Z,959.18
2018-12-31T19:52:55.455Z,959.13
2018-12-31T19:55:21.756Z,959.13
2018-12-31T19:57:48.047Z,959.15
2018-12-31T20:00:14.347Z,959.06
2018-12-31T20:02:40.641Z,959.09
2018-12-31T20:05:06.919Z,959.10
2018-12-31T20:07:33.228Z,959.13
2018-12-31T20:09:59.518Z,959.15
2018-12-31T20:12:25.839Z,959.18
2018-12-31T20:14:52.124Z,959.12
2018-12-31T20:17:18.432Z,959.10
2018-12-31T20:19:44.710Z,959.13
2018-12-31T20:22:11.034Z,959.10
2018-12-31T20:24:37.322Z,959.22
2018-12-31T20:27:03.592Z,959.11
2018-12-31T20:29:29.906Z,959.18
2018-12-31T20:31:56.345Z,959.13
2018-12-31T20:34:22.558Z,959.13
2018-12-31T20:36:48.832Z,959.13
2018-12-31T20:39:15.127Z,959.11
2018-12-31T20:41:41.430Z,959.19
2018-12-31T20:44:07.751Z,959.23
2018-12-31T20:46:34.002Z,959.24
2018-12-31T20:49:00.301Z,959.24
2018-12-31T20:51:26.588Z,959.16
2018-12-31T20:53:52.884Z,959.13
2018-12-31T20:56:19.155Z,959.24
2018-12-31T20:58:45.476Z,959.19
2018-12-31T21:01:11.765Z,959.20
2018-12-31T21:03:38.063Z,959.15
2018-12-31T21:06:04.404Z,959.13
2018-12-31T21:08:30.683Z,959.17
2018-12-31T21:10:56.968Z,959.12
2018-12-31T21:13:23.247Z,959.11
2018-12-31T21:15:49.538Z,959.11
2018-12-31T21:18:15.839Z,959.10
2018-12-31T21:20:42.118Z,959.08
2018-12-31T21:23:08.442Z,959.16
2018-12-31T21:25:34.728Z,959.17
2018-12-31T21:28:01.019Z,959.19
2018-12-31T21:30:27.313Z,959.19
2018-12-31T21:32:53.589Z,959.13
2018-12-31T21:35:19.881Z,959.16
2018-12-31T21:37:46.161Z,959.16
2018-12-31T21:40:12.433Z,959.18
2018-12-31T21:42:38.786Z,959.21
2018-12-31T21:45:05.079Z,959.21
2018-12-31T21:47:31.359Z,959.15
2018-12-31T21:49:57.644Z,959.23
2018-12-31T21:52:23.938Z,959.22
2018-12-31T21:54:50.209Z,959.25
2018-12-31T21:57:18.128Z,959.28
2018-12-31T21:59:42.790Z,959.26
2018-12-31T22:02:09.099Z,959.24
2018-12-31T22:04:35.401Z,959.23
2018-12-31T22:07:01.746Z,959.22
2018-12-31T22:09:28.015Z,959.21
2018-12-31T22:11:54.289Z,959.22
2018-12-31T22:14:20.601Z,959.21
2018-12-31T22:16:46.903Z,959.22
2018-12-31T22:19:13.192Z,959.24
2018-12-31T22:21:39.482Z,959.33
2018-12-31T22:24:05.805Z,959.34
2018-12-31T22:26:32.080Z,959.35
2018-12-31T22:28:58.371Z,959.40
2018-12-31T22:31:24.666Z,959.37
2018-12-31T22:33:50.956Z,959.44
2018-12-31T22:36:17.286Z,959.46
2018-12-31T22:38:43.567Z,959.44
2018-12-31T22:41:09.840Z,959.38
2018-12-31T22:43:36.141Z,959.40
2018-12-31T22:46:02.437Z,959.43
2018-12-31T22:48:28.734Z,959.42
2018-12-31T22:50:55.017Z,959.39
2018-12-31T22:53:21.313Z,959.47
2018-12-31T22:55:47.599Z,959.51
2018-12-31T22:58:13.864Z,959.47
2018-12-31T23:00:40.148Z,959.47
2018-12-31T23:03:06.442Z,959.50
2018-12-31T23:05:32.762Z,959.51
2018-12-31T23:07:59.049Z,959.49
2018-12-31T23:10:25.321Z,959.54
2018-12-31T23:12:51.600Z,959.54
2018-12-31T23:15:17.900Z,959.60
2018-12-31T23:17:44.198Z,959.57
2018-12-31T23:20:10.482Z,959.59
2018-12-31T23:22:36.789Z,959.64
2018-12-31T23:25:03.065Z,959.58
2018-12-31T23:27:29.345Z,959.61
2018-12-31T23:29:55.653Z,959.66
2018-12-31T23:32:21.961Z,959.71
2018-12-31T23:34:48.246Z,959.66
2018-12-31T23:37:14.556Z,959.73
2018-12-31T23:39:40.835Z,959.78
2018-12-31T23:42:07.329Z,959.78
2018-12-31T23:44:33.553Z,959.74
2018-12-31T23:46:59.861Z,959.74
2018-12-31T23:49:26.186Z,959.81
2018-12-31T23:51:52.469Z,959.84
2018-12-31T23:54:18.782Z,959.87
2018-12-31T23:56:45.142Z,959.93
2018-12-31T23:59:11.422Z,959.89
